Time;durP1;ratioP1;P1;durP2;ratioP2;P2;SDS_P1;SDS_P2;PMS_P1;PMS_P2;Temp;Humidity;BMP_temperature;BMP_pressure;BME280_temperature;BME280_humidity;BME280_pressure;Samples;Min_cycle;Max_cycle;Signal;HPM_P1;HPM_P2
2021/09/22 00:00:20;;;;;;;;;;;19.00;33.50;;;;;;4330981;33;20474;-38
2021/09/22 00:02:46;;;;;;;;;;;19.10;34.00;;;;;;4344969;33;20390;-39
2021/09/22 00:05:12;;;;;;;;;;;19.20;34.70;;;;;;4344533;33;20060;-37
2021/09/22 00:07:39;;;;;;;;;;;19.30;35.50;;;;;;4344701;33;20071;-38
2021/09/22 00:10:07;;;;;;;;;;;19.30;36.20;;;;;;4331051;33;19966;-38
2021/09/22 00:12:33;;;;;;;;;;;19.20;38.00;;;;;;4345199;33;20056;-38
2021/09/22 00:14:59;;;;;;;;;;;19.10;38.70;;;;;;4344546;33;19975;-40
2021/09/22 00:17:25;;;;;;;;;;;18.90;39.90;;;;;;4344295;32;19990;-38
2021/09/22 00:19:51;;;;;;;;;;;18.70;40.90;;;;;;4344109;33;20616;-37
2021/09/22 00:22:18;;;;;;;;;;;18.50;42.10;;;;;;4344678;33;19970;-39
2021/09/22 00:24:44;;;;;;;;;;;18.40;42.50;;;;;;4344167;33;20463;-39
2021/09/22 00:27:10;;;;;;;;;;;18.30;43.50;;;;;;4344386;33;19997;-38
2021/09/22 00:29:36;;;;;;;;;;;18.10;44.20;;;;;;4344468;33;19967;-38
2021/09/22 00:32:03;;;;;;;;;;;17.80;44.90;;;;;;4318499;33;20017;-37
2021/09/22 00:34:29;;;;;;;;;;;17.60;45.10;;;;;;4344248;33;19992;-37
2021/09/22 00:36:55;;;;;;;;;;;17.40;45.30;;;;;;4344365;33;19975;-37
2021/09/22 00:39:21;;;;;;;;;;;17.30;45.60;;;;;;4344286;33;20443;-37
2021/09/22 00:41:47;;;;;;;;;;;17.20;45.40;;;;;;4344064;33;19974;-37
2021/09/22 00:44:13;;;;;;;;;;;17.20;45.80;;;;;;4344225;33;19970;-36
2021/09/22 00:46:39;;;;;;;;;;;17.20;46.10;;;;;;4344344;33;19966;-36
2021/09/22 00:49:06;;;;;;;;;;;17.10;46.50;;;;;;4340438;32;20008;-36
2021/09/22 00:51:32;;;;;;;;;;;17.10;46.70;;;;;;4358886;32;19977;-37
2021/09/22 00:53:58;;;;;;;;;;;17.10;46.60;;;;;;4344712;32;19993;-36
2021/09/22 00:56:25;;;;;;;;;;;17.10;46.70;;;;;;4345082;32;19963;-36
2021/09/22 00:58:51;;;;;;;;;;;17.10;46.50;;;;;;4359208;32;19982;-37
2021/09/22 01:01:18;;;;;;;;;;;17.00;46.80;;;;;;4358650;32;19970;-37
2021/09/22 01:03:44;;;;;;;;;;;17.00;46.90;;;;;;4358729;32;19962;-37
2021/09/22 01:06:16;;;;;;;;;;;17.00;47.10;;;;;;4358743;32;20018;-36
2021/09/22 01:08:42;;;;;;;;;;;17.00;48.20;;;;;;4358516;32;19975;-37
2021/09/22 01:11:08;;;;;;;;;;;17.00;47.60;;;;;;4359278;32;19997;-38
2021/09/22 01:13:35;;;;;;;;;;;16.90;47.60;;;;;;4358684;32;20075;-37
2021/09/22 01:16:01;;;;;;;;;;;16.90;48.60;;;;;;4358576;32;19970;-37
2021/09/22 01:18:27;;;;;;;;;;;16.90;48.10;;;;;;4358693;32;19983;-37
2021/09/22 01:20:55;;;;;;;;;;;16.90;48.30;;;;;;4358390;32;19975;-37
2021/09/22 01:23:22;;;;;;;;;;;16.90;48.20;;;;;;4358939;32;19970;-37
2021/09/22 01:25:49;;;;;;;;;;;16.90;48.20;;;;;;4358119;32;20432;-37
2021/09/22 01:28:20;;;;;;;;;;;17.00;48.00;;;;;;4358458;32;20043;-37
2021/09/22 01:30:46;;;;;;;;;;;17.00;47.90;;;;;;4344509;32;19978;-37
2021/09/22 01:33:13;;;;;;;;;;;17.10;47.80;;;;;;4358591;32;19988;-37
2021/09/22 01:35:42;;;;;;;;;;;17.10;47.60;;;;;;4358383;32;20398;-37
2021/09/22 01:38:16;;;;;;;;;;;17.10;47.60;;;;;;4358647;32;20034;-37
2021/09/22 01:40:54;;;;;;;;;;;17.20;47.50;;;;;;4344076;32;19969;-36
2021/09/22 01:43:20;;;;;;;;;;;17.20;47.40;;;;;;4358059;32;19973;-36
2021/09/22 01:45:46;;;;;;;;;;;17.20;47.40;;;;;;4358375;32;19980;-37
2021/09/22 01:48:12;;;;;;;;;;;17.30;47.20;;;;;;4353382;32;19999;-36
2021/09/22 01:50:38;;;;;;;;;;;17.30;47.30;;;;;;4343655;33;20396;-37
2021/09/22 01:53:05;;;;;;;;;;;17.40;47.40;;;;;;4343730;33;20426;-36
2021/09/22 01:55:31;;;;;;;;;;;17.40;47.50;;;;;;4329428;33;19974;-35
2021/09/22 01:57:57;;;;;;;;;;;17.40;47.50;;;;;;4343266;33;19982;-36
2021/09/22 02:00:23;;;;;;;;;;;17.40;47.30;;;;;;4343267;33;20515;-36
2021/09/22 02:02:49;;;;;;;;;;;17.40;47.30;;;;;;4343408;33;20059;-36
2021/09/22 02:05:16;;;;;;;;;;;17.40;47.40;;;;;;4343187;33;19978;-36
2021/09/22 02:07:45;;;;;;;;;;;17.50;47.30;;;;;;4343458;33;20500;-36
2021/09/22 02:10:11;;;;;;;;;;;17.60;47.20;;;;;;4343426;33;19969;-36
2021/09/22 02:12:37;;;;;;;;;;;17.60;47.10;;;;;;4343747;33;19961;-36
2021/09/22 02:15:04;;;;;;;;;;;17.70;46.90;;;;;;4343191;33;20553;-36
2021/09/22 02:17:31;;;;;;;;;;;17.80;47.10;;;;;;4343559;33;19982;-36
2021/09/22 02:19:57;;;;;;;;;;;17.80;46.60;;;;;;4343369;33;20415;-36
2021/09/22 02:22:23;;;;;;;;;;;17.80;46.40;;;;;;4342876;33;19982;-36
2021/09/22 02:24:49;;;;;;;;;;;17.90;46.50;;;;;;4343589;33;20147;-36
2021/09/22 02:27:18;;;;;;;;;;;17.90;47.10;;;;;;4343482;33;20038;-36
2021/09/22 02:29:44;;;;;;;;;;;18.00;46.20;;;;;;4343005;33;20454;-36
2021/09/22 02:32:11;;;;;;;;;;;18.00;46.00;;;;;;4343348;33;20402;-36
2021/09/22 02:34:37;;;;;;;;;;;18.10;46.00;;;;;;4343235;33;19979;-37
2021/09/22 02:37:04;;;;;;;;;;;18.10;45.90;;;;;;4329765;33;20088;-37
2021/09/22 02:39:30;;;;;;;;;;;18.10;45.70;;;;;;4342970;32;20465;-37
2021/09/22 02:41:56;;;;;;;;;;;18.10;45.50;;;;;;4346011;33;20121;-35
2021/09/22 02:44:25;;;;;;;;;;;18.20;45.40;;;;;;4345484;33;19979;-36
2021/09/22 02:46:51;;;;;;;;;;;18.20;46.00;;;;;;4346001;33;19994;-36
2021/09/22 02:49:21;;;;;;;;;;;18.20;45.20;;;;;;4357087;32;20413;-37
2021/09/22 02:51:47;;;;;;;;;;;18.20;45.40;;;;;;4346885;32;20418;-36
2021/09/22 02:54:14;;;;;;;;;;;18.20;46.20;;;;;;4360856;32;20048;-37
2021/09/22 02:56:40;;;;;;;;;;;18.20;46.60;;;;;;4360552;32;20412;-37
2021/09/22 02:59:06;;;;;;;;;;;18.20;46.90;;;;;;4360535;32;20002;-38
2021/09/22 03:01:32;;;;;;;;;;;18.20;47.10;;;;;;4360246;32;20473;-36
2021/09/22 03:04:00;;;;;;;;;;;18.20;47.00;;;;;;4360762;32;19963;-37
2021/09/22 03:06:27;;;;;;;;;;;18.20;46.70;;;;;;4360380;32;19990;-39
2021/09/22 03:08:53;;;;;;;;;;;18.10;46.60;;;;;;4360245;32;19970;-39
2021/09/22 03:11:19;;;;;;;;;;;18.10;46.40;;;;;;4360460;32;20029;-39
2021/09/22 03:13:46;;;;;;;;;;;18.10;46.50;;;;;;4360356;32;20479;-38
2021/09/22 03:16:12;;;;;;;;;;;18.10;46.50;;;;;;4360449;32;20005;-38
2021/09/22 03:18:38;;;;;;;;;;;18.10;46.20;;;;;;4359881;32;19962;-37
2021/09/22 03:21:05;;;;;;;;;;;18.10;46.20;;;;;;4346088;32;19950;-37
2021/09/22 03:23:31;;;;;;;;;;;18.10;46.20;;;;;;4360021;32;20359;-39
2021/09/22 03:25:58;;;;;;;;;;;18.10;46.20;;;;;;4360109;32;19985;-38
2021/09/22 03:28:24;;;;;;;;;;;18.10;46.10;;;;;;4360068;32;20033;-37
2021/09/22 03:30:50;;;;;;;;;;;18.00;46.10;;;;;;4346116;32;20429;-37
2021/09/22 03:33:17;;;;;;;;;;;18.00;46.00;;;;;;4360341;32;20056;-38
2021/09/22 03:35:44;;;;;;;;;;;18.10;46.10;;;;;;4360188;32;20390;-38
2021/09/22 03:38:10;;;;;;;;;;;18.10;46.10;;;;;;4359393;32;20416;-37
2021/09/22 03:40:36;;;;;;;;;;;18.10;46.00;;;;;;4359770;32;19963;-37
2021/09/22 03:43:03;;;;;;;;;;;18.10;46.00;;;;;;4359934;32;19986;-37
2021/09/22 03:45:29;;;;;;;;;;;18.10;46.00;;;;;;4345996;32;20019;-37
2021/09/22 03:47:55;;;;;;;;;;;18.10;46.00;;;;;;4357208;32;19966;-37
2021/09/22 03:50:23;;;;;;;;;;;18.10;46.10;;;;;;4344817;33;20453;-37
2021/09/22 03:52:49;;;;;;;;;;;18.10;46.10;;;;;;4344109;32;19982;-36
2021/09/22 03:55:15;;;;;;;;;;;18.10;46.20;;;;;;4344775;33;19966;-38
2021/09/22 03:57:41;;;;;;;;;;;18.10;46.10;;;;;;4344764;33;19987;-38
2021/09/22 04:00:08;;;;;;;;;;;18.20;46.20;;;;;;4326763;33;19967;-37
2021/09/22 04:02:34;;;;;;;;;;;18.20;45.90;;;;;;4327722;33;20054;-37
2021/09/22 04:05:00;;;;;;;;;;;18.20;45.90;;;;;;4327493;33;19979;-36
2021/09/22 04:07:27;;;;;;;;;;;18.20;45.90;;;;;;4326984;33;19967;-37
2021/09/22 04:09:53;;;;;;;;;;;18.20;45.90;;;;;;4327045;33;19998;-38
2021/09/22 04:12:19;;;;;;;;;;;18.20;45.90;;;;;;4327201;33;20466;-37
2021/09/22 04:14:45;;;;;;;;;;;18.20;46.10;;;;;;4327535;33;19975;-38
2021/09/22 04:17:12;;;;;;;;;;;18.10;46.10;;;;;;4326625;33;20450;-38
2021/09/22 04:19:38;;;;;;;;;;;18.10;46.40;;;;;;4326919;33;20063;-37
2021/09/22 04:22:05;;;;;;;;;;;18.10;46.50;;;;;;4327149;33;19975;-37
2021/09/22 04:24:31;;;;;;;;;;;18.20;46.50;;;;;;4326734;33;20511;-39
2021/09/22 04:26:57;;;;;;;;;;;18.20;46.50;;;;;;4315256;33;20427;-38
2021/09/22 04:29:23;;;;;;;;;;;18.20;46.40;;;;;;4315085;33;20798;-37
2021/09/22 04:31:49;;;;;;;;;;;18.30;46.70;;;;;;4327030;33;19963;-37
2021/09/22 04:34:15;;;;;;;;;;;18.40;46.70;;;;;;4327017;33;19975;-36
2021/09/22 04:36:42;;;;;;;;;;;18.40;46.80;;;;;;4329277;33;20028;-37
2021/09/22 04:39:09;;;;;;;;;;;18.50;47.40;;;;;;4330418;33;20423;-37
2021/09/22 04:41:35;;;;;;;;;;;18.50;47.60;;;;;;4344291;33;20370;-38
2021/09/22 04:44:01;;;;;;;;;;;18.50;47.80;;;;;;4344548;33;19974;-37
2021/09/22 04:46:27;;;;;;;;;;;18.50;48.00;;;;;;4344729;33;19986;-37
2021/09/22 04:48:53;;;;;;;;;;;18.50;48.40;;;;;;4352437;32;19984;-35
2021/09/22 04:51:19;;;;;;;;;;;18.40;49.20;;;;;;4345118;32;19978;-37
2021/09/22 04:53:46;;;;;;;;;;;18.40;49.70;;;;;;4358663;32;20080;-37
2021/09/22 04:56:14;;;;;;;;;;;18.30;50.10;;;;;;4358613;32;19990;-36
2021/09/22 04:58:41;;;;;;;;;;;18.30;50.00;;;;;;4358410;32;20060;-37
2021/09/22 05:01:07;;;;;;;;;;;18.20;50.20;;;;;;4358532;32;19970;-38
2021/09/22 05:03:33;;;;;;;;;;;18.10;50.60;;;;;;4358979;32;19962;-36
2021/09/22 05:05:59;;;;;;;;;;;18.00;50.90;;;;;;4358362;32;19963;-37
2021/09/22 05:08:26;;;;;;;;;;;17.90;51.70;;;;;;4358770;32;20461;-37
2021/09/22 05:10:54;;;;;;;;;;;17.80;52.30;;;;;;4359078;32;19978;-38
2021/09/22 05:13:21;;;;;;;;;;;17.80;52.50;;;;;;4359391;32;20060;-37
2021/09/22 05:15:47;;;;;;;;;;;17.70;52.90;;;;;;4358726;32;20344;-37
2021/09/22 05:18:14;;;;;;;;;;;17.70;53.10;;;;;;4358199;32;20036;-36
2021/09/22 05:20:40;;;;;;;;;;;17.70;53.30;;;;;;4358119;32;19986;-36
2021/09/22 05:23:06;;;;;;;;;;;17.70;53.10;;;;;;4358414;32;19985;-35
2021/09/22 05:25:33;;;;;;;;;;;17.70;53.10;;;;;;4344580;32;20053;-35
2021/09/22 05:27:59;;;;;;;;;;;17.70;53.40;;;;;;4358255;32;20121;-34
2021/09/22 05:30:25;;;;;;;;;;;17.70;53.40;;;;;;4344552;32;19966;-38
2021/09/22 05:32:51;;;;;;;;;;;17.70;53.50;;;;;;4358580;32;20361;-34
2021/09/22 05:35:17;;;;;;;;;;;17.80;53.50;;;;;;4358151;32;19976;-35
2021/09/22 05:37:44;;;;;;;;;;;17.80;53.50;;;;;;4358231;32;20053;-35
2021/09/22 05:40:10;;;;;;;;;;;17.80;53.90;;;;;;4344282;32;19977;-34
2021/09/22 05:42:36;;;;;;;;;;;17.90;53.80;;;;;;4358297;32;19958;-36
2021/09/22 05:45:03;;;;;;;;;;;17.90;53.40;;;;;;4358084;32;19962;-35
2021/09/22 05:47:30;;;;;;;;;;;17.90;52.40;;;;;;4358181;32;19962;-34
2021/09/22 05:49:56;;;;;;;;;;;17.80;52.70;;;;;;4343209;33;19978;-35
2021/09/22 05:52:22;;;;;;;;;;;17.70;52.70;;;;;;4343463;33;19974;-35
2021/09/22 05:54:49;;;;;;;;;;;17.60;53.00;;;;;;4343132;33;19978;-34
2021/09/22 05:57:15;;;;;;;;;;;17.60;53.30;;;;;;4343339;33;20050;-35
2021/09/22 05:59:41;;;;;;;;;;;17.60;53.10;;;;;;4343149;33;19966;-35
2021/09/22 06:02:08;;;;;;;;;;;17.60;53.20;;;;;;4343535;33;20658;-33
2021/09/22 06:04:34;;;;;;;;;;;17.50;53.30;;;;;;4329473;33;19986;-32
2021/09/22 06:07:00;;;;;;;;;;;17.50;53.60;;;;;;4343008;33;19962;-33
2021/09/22 06:09:26;;;;;;;;;;;17.40;53.40;;;;;;4343088;33;20459;-38
2021/09/22 06:11:54;;;;;;;;;;;17.40;53.70;;;;;;4329579;33;19959;-34
2021/09/22 06:14:20;;;;;;;;;;;17.30;54.10;;;;;;4343018;32;20042;-38
2021/09/22 06:16:46;;;;;;;;;;;17.30;54.20;;;;;;4345832;33;20130;-39
2021/09/22 06:19:12;;;;;;;;;;;17.20;54.40;;;;;;4345871;33;19982;-33
2021/09/22 06:21:39;;;;;;;;;;;17.20;54.20;;;;;;4313532;33;20013;-34
2021/09/22 06:24:05;;;;;;;;;;;17.10;54.10;;;;;;4302012;33;20002;-33
2021/09/22 06:26:31;;;;;;;;;;;17.10;54.60;;;;;;4314258;33;20020;-33
2021/09/22 06:28:58;;;;;;;;;;;17.10;55.30;;;;;;4313605;33;19974;-39
2021/09/22 06:31:24;;;;;;;;;;;17.10;55.40;;;;;;4314433;33;20009;-34
2021/09/22 06:33:50;;;;;;;;;;;17.00;55.20;;;;;;4313975;33;19978;-34
2021/09/22 06:36:16;;;;;;;;;;;17.00;55.30;;;;;;4314115;33;20337;-32
2021/09/22 06:38:43;;;;;;;;;;;17.00;55.40;;;;;;4314106;33;20014;-34
2021/09/22 06:41:09;;;;;;;;;;;17.00;55.50;;;;;;4284413;33;19983;-37
2021/09/22 06:43:35;;;;;;;;;;;17.00;55.70;;;;;;4284683;33;20030;-32
2021/09/22 06:46:01;;;;;;;;;;;17.00;55.60;;;;;;4284690;33;19975;-34
2021/09/22 06:48:28;;;;;;;;;;;17.00;55.50;;;;;;4291004;33;19983;-34
2021/09/22 06:50:54;;;;;;;;;;;17.10;55.50;;;;;;4299560;33;20009;-35
2021/09/22 06:53:20;;;;;;;;;;;17.10;55.30;;;;;;4322171;33;19966;-33
2021/09/22 06:55:46;;;;;;;;;;;17.10;55.10;;;;;;4328436;33;20000;-34
2021/09/22 06:58:13;;;;;;;;;;;17.00;54.90;;;;;;4328518;33;19978;-34
2021/09/22 07:00:39;;;;;;;;;;;17.00;55.10;;;;;;4328173;33;20063;-34
2021/09/22 07:03:11;;;;;;;;;;;16.90;55.20;;;;;;4328078;33;19967;-39
2021/09/22 07:05:38;;;;;;;;;;;16.90;55.60;;;;;;4328054;33;19982;-34
2021/09/22 07:08:05;;;;;;;;;;;16.90;55.80;;;;;;4328206;33;19975;-35
2021/09/22 07:10:31;;;;;;;;;;;16.90;56.00;;;;;;4313262;33;20412;-35
2021/09/22 07:12:58;;;;;;;;;;;16.90;56.10;;;;;;4313848;33;19982;-34
2021/09/22 07:15:24;;;;;;;;;;;17.00;56.20;;;;;;4313511;33;19991;-35
2021/09/22 07:17:50;;;;;;;;;;;17.10;55.90;;;;;;4315687;33;20447;-37
2021/09/22 07:20:17;;;;;;;;;;;17.00;55.70;;;;;;4327550;33;20415;-37
2021/09/22 07:22:43;;;;;;;;;;;16.90;55.90;;;;;;4327921;33;20464;-38
2021/09/22 07:25:09;;;;;;;;;;;16.90;56.10;;;;;;4328184;33;19991;-41
2021/09/22 07:27:36;;;;;;;;;;;17.00;56.00;;;;;;4326975;33;19970;-37
2021/09/22 07:30:03;;;;;;;;;;;16.90;55.90;;;;;;4328130;33;20039;-35
2021/09/22 07:32:30;;;;;;;;;;;16.90;56.00;;;;;;4328500;33;20502;-35
2021/09/22 07:34:56;;;;;;;;;;;16.90;56.20;;;;;;4328095;33;19981;-35
2021/09/22 07:37:22;;;;;;;;;;;16.90;56.10;;;;;;4327744;33;19994;-35
2021/09/22 07:39:48;;;;;;;;;;;16.90;56.10;;;;;;4327722;33;20043;-39
2021/09/22 07:42:15;;;;;;;;;;;16.90;56.00;;;;;;4312563;33;20067;-39
2021/09/22 07:44:45;;;;;;;;;;;17.00;55.60;;;;;;4313270;33;19967;-35
2021/09/22 07:47:13;;;;;;;;;;;17.00;55.70;;;;;;4318210;33;20487;-36
2021/09/22 07:49:41;;;;;;;;;;;17.10;55.80;;;;;;4328798;33;20054;-39
2021/09/22 07:52:07;;;;;;;;;;;17.10;55.70;;;;;;4327333;33;20451;-37
2021/09/22 07:54:33;;;;;;;;;;;17.30;55.90;;;;;;4327589;33;20399;-40
2021/09/22 07:56:59;;;;;;;;;;;17.40;55.60;;;;;;4327786;33;19967;-38
2021/09/22 07:59:26;;;;;;;;;;;17.40;55.00;;;;;;4327156;33;20008;-35
2021/09/22 08:01:52;;;;;;;;;;;17.50;54.00;;;;;;4315340;33;20436;-36
2021/09/22 08:04:18;;;;;;;;;;;17.60;54.00;;;;;;4327363;33;19971;-38
2021/09/22 08:06:44;;;;;;;;;;;17.70;53.00;;;;;;4327467;33;20051;-35
2021/09/22 08:09:11;;;;;;;;;;;17.80;52.60;;;;;;4327683;33;20133;-35
2021/09/22 08:11:37;;;;;;;;;;;17.80;52.70;;;;;;4327399;33;19971;-35
2021/09/22 08:14:03;;;;;;;;;;;17.90;52.80;;;;;;4315252;33;19973;-36
2021/09/22 08:16:29;;;;;;;;;;;18.00;52.50;;;;;;4327417;33;20090;-35
2021/09/22 08:18:56;;;;;;;;;;;18.10;52.00;;;;;;4341194;33;20488;-35
2021/09/22 08:21:22;;;;;;;;;;;18.20;51.40;;;;;;4344256;32;19966;-40
2021/09/22 08:23:48;;;;;;;;;;;18.20;51.00;;;;;;4344315;32;20015;-41
2021/09/22 08:26:14;;;;;;;;;;;18.30;50.50;;;;;;4344357;32;19967;-42
2021/09/22 08:28:40;;;;;;;;;;;18.30;50.70;;;;;;4344634;32;19982;-42
2021/09/22 08:31:07;;;;;;;;;;;18.40;50.50;;;;;;4344605;32;19974;-43
2021/09/22 08:33:33;;;;;;;;;;;18.30;49.80;;;;;;4344570;32;19990;-42
2021/09/22 08:35:59;;;;;;;;;;;18.30;50.30;;;;;;4342957;33;20020;-44
2021/09/22 08:38:26;;;;;;;;;;;18.30;50.60;;;;;;4343472;32;19967;-42
2021/09/22 08:40:52;;;;;;;;;;;18.40;49.90;;;;;;4343658;32;20065;-42
2021/09/22 08:43:25;;;;;;;;;;;18.30;49.80;;;;;;4343641;32;19975;-42
2021/09/22 08:45:51;;;;;;;;;;;18.30;49.90;;;;;;4343735;32;19974;-42
2021/09/22 08:48:17;;;;;;;;;;;18.30;49.80;;;;;;4337220;33;19967;-45
2021/09/22 08:50:45;;;;;;;;;;;18.30;49.80;;;;;;4329407;33;20046;-46
2021/09/22 08:53:11;;;;;;;;;;;18.40;50.00;;;;;;4328914;33;20493;-46
2021/09/22 08:55:37;;;;;;;;;;;18.40;49.90;;;;;;4329378;33;20406;-43
2021/09/22 08:58:04;;;;;;;;;;;18.40;49.50;;;;;;4329464;33;20432;-44
2021/09/22 09:00:30;;;;;;;;;;;18.40;49.80;;;;;;4328905;33;19982;-44
2021/09/22 09:02:56;;;;;;;;;;;18.50;49.70;;;;;;4328966;33;20518;-44
2021/09/22 09:05:25;;;;;;;;;;;18.50;49.40;;;;;;4327287;33;20129;-45
2021/09/22 09:07:54;;;;;;;;;;;18.50;49.40;;;;;;4328593;33;20361;-44
2021/09/22 09:10:23;;;;;;;;;;;18.50;49.30;;;;;;4328471;33;20064;-45
2021/09/22 09:13:04;;;;;;;;;;;18.50;49.20;;;;;;4328653;33;20490;-44
2021/09/22 09:15:32;;;;;;;;;;;18.50;49.20;;;;;;4328923;33;19979;-44
2021/09/22 09:18:00;;;;;;;;;;;18.50;49.50;;;;;;4336418;33;20014;-43
2021/09/22 09:20:27;;;;;;;;;;;18.50;49.60;;;;;;4343606;33;19967;-44
2021/09/22 09:23:07;;;;;;;;;;;18.40;49.40;;;;;;4343899;33;19986;-45
2021/09/22 09:25:39;;;;;;;;;;;18.40;49.60;;;;;;4343557;33;19993;-45
2021/09/22 09:28:29;;;;;;;;;;;18.30;49.40;;;;;;4344018;33;19974;-46
2021/09/22 09:31:00;;;;;;;;;;;18.20;49.40;;;;;;4330048;33;20017;-44
2021/09/22 09:33:42;;;;;;;;;;;18.10;50.00;;;;;;4343828;33;19962;-43
2021/09/22 09:36:29;;;;;;;;;;;18.00;50.00;;;;;;4343134;33;19963;-42
2021/09/22 09:39:03;;;;;;;;;;;18.00;50.00;;;;;;4343967;33;20140;-46
2021/09/22 09:41:31;;;;;;;;;;;17.90;50.00;;;;;;4343567;33;20075;-43
2021/09/22 09:43:58;;;;;;;;;;;17.90;50.00;;;;;;4343206;33;19977;-43
2021/09/22 09:46:26;;;;;;;;;;;17.80;49.90;;;;;;4343369;33;20012;-43
2021/09/22 09:49:03;;;;;;;;;;;17.80;49.90;;;;;;4352073;32;19962;-43
2021/09/22 09:51:31;;;;;;;;;;;17.80;49.90;;;;;;4357696;32;20006;-43
2021/09/22 09:54:15;;;;;;;;;;;17.90;50.30;;;;;;4358292;32;19981;-44
2021/09/22 09:56:42;;;;;;;;;;;17.90;49.60;;;;;;4357924;32;20448;-43
2021/09/22 09:59:08;;;;;;;;;;;17.90;49.50;;;;;;4358117;32;19958;-43
2021/09/22 10:01:35;;;;;;;;;;;18.00;49.50;;;;;;4358188;32;19968;-43
2021/09/22 10:04:02;;;;;;;;;;;18.00;49.00;;;;;;4358098;32;20071;-44
2021/09/22 10:06:28;;;;;;;;;;;18.00;49.30;;;;;;4358328;32;19971;-44
2021/09/22 10:08:55;;;;;;;;;;;18.10;49.30;;;;;;4343828;32;20083;-43
2021/09/22 10:11:21;;;;;;;;;;;18.20;49.50;;;;;;4357771;32;20045;-44
2021/09/22 10:13:47;;;;;;;;;;;18.30;49.50;;;;;;4344376;32;19985;-45
2021/09/22 10:16:16;;;;;;;;;;;18.40;49.10;;;;;;4343904;32;20539;-43
2021/09/22 10:18:42;;;;;;;;;;;18.50;49.20;;;;;;4357885;32;20386;-43
2021/09/22 10:21:08;;;;;;;;;;;18.60;48.60;;;;;;4331968;32;19972;-44
2021/09/22 10:23:35;;;;;;;;;;;18.60;48.90;;;;;;4343664;32;20081;-45
2021/09/22 10:26:01;;;;;;;;;;;18.70;48.20;;;;;;4344273;32;20341;-44
2021/09/22 10:28:36;;;;;;;;;;;18.70;48.40;;;;;;4343660;32;19970;-44
2021/09/22 10:31:05;;;;;;;;;;;18.80;48.70;;;;;;4357820;32;19993;-43
2021/09/22 10:33:33;;;;;;;;;;;18.90;48.30;;;;;;4357890;32;20420;-43
2021/09/22 10:36:01;;;;;;;;;;;19.00;48.10;;;;;;4358167;32;19986;-44
2021/09/22 10:38:27;;;;;;;;;;;19.00;48.20;;;;;;4357634;32;20021;-44
2021/09/22 10:40:54;;;;;;;;;;;19.00;48.90;;;;;;4357426;32;20452;-45
2021/09/22 10:43:21;;;;;;;;;;;19.00;47.80;;;;;;4343860;32;19962;-44
2021/09/22 10:46:08;;;;;;;;;;;19.00;47.70;;;;;;4357731;32;19959;-44
2021/09/22 10:48:35;;;;;;;;;;;19.00;47.30;;;;;;4350847;32;20375;-45
2021/09/22 10:51:04;;;;;;;;;;;19.00;47.50;;;;;;4343157;33;19959;-44
2021/09/22 10:53:33;;;;;;;;;;;19.00;47.50;;;;;;4343100;33;19974;-44
2021/09/22 10:56:09;;;;;;;;;;;18.90;47.70;;;;;;4342894;33;19979;-44
2021/09/22 10:58:41;;;;;;;;;;;18.90;47.60;;;;;;4342983;33;19973;-44
2021/09/22 11:01:08;;;;;;;;;;;18.90;47.30;;;;;;4329501;33;20482;-46
2021/09/22 11:03:50;;;;;;;;;;;18.90;47.10;;;;;;4345726;33;19955;-46
2021/09/22 11:06:44;;;;;;;;;;;18.80;47.40;;;;;;4345446;33;19969;-45
2021/09/22 11:09:11;;;;;;;;;;;18.80;47.90;;;;;;4345459;33;19970;-44
2021/09/22 11:11:56;;;;;;;;;;;18.90;47.50;;;;;;4345211;33;19955;-45
2021/09/22 11:14:31;;;;;;;;;;;18.80;47.80;;;;;;4345127;33;19975;-43
2021/09/22 11:17:19;;;;;;;;;;;18.90;47.40;;;;;;4345005;33;19967;-46
2021/09/22 11:19:51;;;;;;;;;;;18.80;47.40;;;;;;4345243;33;20009;-45
2021/09/22 11:22:19;;;;;;;;;;;18.70;47.60;;;;;;4345620;33;20075;-46
2021/09/22 11:24:46;;;;;;;;;;;18.80;47.90;;;;;;4345152;33;20026;-47
2021/09/22 11:27:16;;;;;;;;;;;18.80;48.20;;;;;;4345233;33;20434;-47
2021/09/22 11:29:50;;;;;;;;;;;18.80;47.90;;;;;;4345212;33;20549;-44
2021/09/22 11:32:26;;;;;;;;;;;18.90;47.80;;;;;;4344987;33;20379;-45
2021/09/22 11:34:54;;;;;;;;;;;18.90;47.70;;;;;;4345088;33;20447;-44
2021/09/22 11:37:21;;;;;;;;;;;19.00;47.30;;;;;;4345058;33;19958;-44
2021/09/22 11:39:47;;;;;;;;;;;19.00;47.20;;;;;;4344666;33;19978;-44
2021/09/22 11:42:15;;;;;;;;;;;19.00;47.00;;;;;;4345173;33;19987;-45
2021/09/22 11:44:42;;;;;;;;;;;19.10;46.70;;;;;;4345099;33;19966;-44
2021/09/22 11:47:09;;;;;;;;;;;19.10;46.00;;;;;;4344520;33;20045;-46
2021/09/22 11:49:37;;;;;;;;;;;19.10;46.30;;;;;;4344277;32;20090;-45
2021/09/22 11:52:12;;;;;;;;;;;19.10;46.00;;;;;;4346133;32;19963;-45
2021/09/22 11:54:49;;;;;;;;;;;19.10;45.60;;;;;;4359863;32;19966;-44
2021/09/22 11:57:17;;;;;;;;;;;19.10;45.90;;;;;;4359595;32;19978;-43
2021/09/22 11:59:45;;;;;;;;;;;19.10;45.60;;;;;;4359866;32;19981;-45
2021/09/22 12:02:13;;;;;;;;;;;19.10;45.90;;;;;;4359512;32;20462;-46
2021/09/22 12:04:41;;;;;;;;;;;19.10;46.10;;;;;;4345753;32;19962;-46
2021/09/22 12:07:08;;;;;;;;;;;19.10;46.20;;;;;;4359386;32;20409;-46
2021/09/22 12:09:42;;;;;;;;;;;19.10;46.00;;;;;;4359440;32;19993;-44
2021/09/22 12:12:13;;;;;;;;;;;19.10;46.00;;;;;;4359474;32;19967;-46
2021/09/22 12:14:46;;;;;;;;;;;19.20;45.60;;;;;;4359194;32;19966;-45
2021/09/22 12:17:13;;;;;;;;;;;19.10;45.60;;;;;;4359255;32;19958;-46
2021/09/22 12:19:40;;;;;;;;;;;19.10;45.60;;;;;;4359292;32;20407;-45
2021/09/22 12:22:07;;;;;;;;;;;19.10;45.40;;;;;;4333042;32;19990;-45
2021/09/22 12:24:34;;;;;;;;;;;19.10;45.50;;;;;;4358966;32;20378;-46
2021/09/22 12:27:01;;;;;;;;;;;19.20;45.70;;;;;;4345475;32;19966;-44
2021/09/22 12:29:27;;;;;;;;;;;19.30;45.70;;;;;;4344943;32;20066;-44
2021/09/22 12:31:53;;;;;;;;;;;19.30;45.50;;;;;;4358882;32;20374;-45
2021/09/22 12:34:26;;;;;;;;;;;19.40;45.30;;;;;;4359284;32;20062;-44
2021/09/22 12:36:54;;;;;;;;;;;19.50;45.20;;;;;;4358779;32;19966;-44
2021/09/22 12:39:23;;;;;;;;;;;19.50;45.10;;;;;;4359066;32;19973;-45
2021/09/22 12:42:07;;;;;;;;;;;19.50;45.10;;;;;;4345234;32;19962;-45
2021/09/22 12:44:57;;;;;;;;;;;19.50;45.00;;;;;;4358376;32;20519;-45
2021/09/22 12:47:23;;;;;;;;;;;19.50;45.10;;;;;;4358836;32;19978;-44
2021/09/22 12:50:11;;;;;;;;;;;19.50;45.30;;;;;;4344159;32;19963;-43
2021/09/22 12:52:38;;;;;;;;;;;19.50;45.30;;;;;;4343651;33;20035;-44
2021/09/22 12:55:21;;;;;;;;;;;19.60;45.10;;;;;;4343787;33;19973;-44
2021/09/22 12:57:53;;;;;;;;;;;19.60;45.20;;;;;;4344078;33;19975;-45
2021/09/22 13:00:26;;;;;;;;;;;19.60;45.20;;;;;;4343759;33;19978;-45
2021/09/22 13:03:26;;;;;;;;;;;19.70;44.80;;;;;;4343114;33;20439;-44
2021/09/22 13:06:19;;;;;;;;;;;19.80;44.30;;;;;;4343243;33;20400;-44
2021/09/22 13:08:53;;;;;;;;;;;19.80;44.40;;;;;;4322568;33;20006;-44
2021/09/22 13:11:20;;;;;;;;;;;19.80;44.30;;;;;;4343910;33;19967;-45
2021/09/22 13:14:05;;;;;;;;;;;19.80;44.40;;;;;;4343702;33;20078;-43
2021/09/22 13:16:38;;;;;;;;;;;19.80;43.50;;;;;;4343714;33;19974;-43
2021/09/22 13:19:06;;;;;;;;;;;19.80;43.90;;;;;;4343234;33;20035;-44
2021/09/22 13:21:33;;;;;;;;;;;19.80;43.70;;;;;;4343689;33;20463;-44
2021/09/22 13:24:01;;;;;;;;;;;19.80;43.90;;;;;;4343334;32;19970;-46
2021/09/22 13:26:28;;;;;;;;;;;19.80;43.90;;;;;;4343141;33;20056;-44
2021/09/22 13:28:55;;;;;;;;;;;19.90;44.00;;;;;;4343411;33;19978;-44
2021/09/22 13:31:21;;;;;;;;;;;19.90;43.20;;;;;;4343078;33;20428;-45
2021/09/22 13:33:48;;;;;;;;;;;19.90;43.50;;;;;;4343780;33;19975;-45
2021/09/22 13:36:14;;;;;;;;;;;19.90;43.60;;;;;;4343091;33;19965;-45
2021/09/22 13:38:41;;;;;;;;;;;19.90;43.70;;;;;;4343727;33;19967;-44
2021/09/22 13:41:07;;;;;;;;;;;20.00;43.50;;;;;;4343362;33;20402;-45
2021/09/22 13:43:34;;;;;;;;;;;20.00;43.50;;;;;;4342974;33;20426;-47
2021/09/22 13:46:01;;;;;;;;;;;20.00;42.90;;;;;;4343410;33;19973;-43
2021/09/22 13:48:27;;;;;;;;;;;20.00;43.00;;;;;;4349224;32;19962;-46
2021/09/22 13:50:54;;;;;;;;;;;19.90;42.50;;;;;;4358034;32;19958;-43
2021/09/22 13:53:20;;;;;;;;;;;19.90;42.70;;;;;;4358087;32;20130;-40
2021/09/22 13:55:47;;;;;;;;;;;19.90;42.70;;;;;;4358015;32;20009;-41
2021/09/22 13:58:13;;;;;;;;;;;19.80;42.60;;;;;;4357836;32;20195;-38
2021/09/22 14:00:40;;;;;;;;;;;19.80;42.90;;;;;;4343573;32;20042;-39
2021/09/22 14:03:07;;;;;;;;;;;19.90;43.00;;;;;;4357971;32;19973;-39
2021/09/22 14:05:33;;;;;;;;;;;19.90;42.70;;;;;;4357620;32;20046;-38
2021/09/22 14:08:02;;;;;;;;;;;19.90;42.60;;;;;;4357918;32;20047;-39
2021/09/22 14:10:32;;;;;;;;;;;19.90;42.70;;;;;;4357722;32;19970;-39
2021/09/22 14:13:01;;;;;;;;;;;19.90;42.50;;;;;;4358075;32;19966;-39
2021/09/22 14:15:41;;;;;;;;;;;19.90;42.40;;;;;;4357592;32;19963;-40
2021/09/22 14:18:08;;;;;;;;;;;19.90;42.10;;;;;;4357985;32;20421;-39
2021/09/22 14:20:35;;;;;;;;;;;19.80;41.90;;;;;;4357746;32;19958;-39